sensor_id;sensor_type;location;lat;lon;timestamp;pressure;altitude;pressure_sealevel;temperature;humidity
42725;BME280;28369;44.046;23.014;2023-04-06T13:13:52;100630.16;;;13.50;32.67
42725;BME280;28369;44.046;23.014;2023-04-06T13:16:18;100619.28;;;13.25;32.62
42725;BME280;28369;44.046;23.014;2023-04-06T13:18:44;100646.19;;;13.38;32.21
42725;BME280;28369;44.046;23.014;2023-04-06T13:21:13;100687.56;;;13.75;32.91
42725;BME280;28369;44.046;23.014;2023-04-06T13:23:39;100699.91;;;13.57;31.80
42725;BME280;28369;44.046;23.014;2023-04-06T13:26:06;100662.66;;;13.78;32.43
42725;BME280;28369;44.046;23.014;2023-04-06T13:28:33;100666.09;;;14.06;31.50
42725;BME280;28369;44.046;23.014;2023-04-06T13:31:00;100669.31;;;14.00;31.18
42725;BME280;28369;44.046;23.014;2023-04-06T13:33:27;100534.31;;;13.57;31.45
42725;BME280;28369;44.046;23.014;2023-04-06T13:35:52;100580.59;;;13.43;31.13
42725;BME280;28369;44.046;23.014;2023-04-06T13:38:18;100651.28;;;14.13;31.17
42725;BME280;28369;44.046;23.014;2023-04-06T13:40:44;100667.06;;;14.23;31.01
42725;BME280;28369;44.046;23.014;2023-04-06T13:43:09;100519.47;;;13.56;30.84
42725;BME280;28369;44.046;23.014;2023-04-06T13:45:36;100383.63;;;12.51;31.66
42725;BME280;28369;44.046;23.014;2023-04-06T13:48:02;100541.84;;;13.70;30.88
42725;BME280;28369;44.046;23.014;2023-04-06T13:50:28;100649.84;;;14.19;30.15
42725;BME280;28369;44.046;23.014;2023-04-06T13:52:53;100667.19;;;14.40;31.16
42725;BME280;28369;44.046;23.014;2023-04-06T13:55:19;100607.63;;;13.73;31.61
42725;BME280;28369;44.046;23.014;2023-04-06T13:57:44;100652.31;;;14.03;30.89
42725;BME280;28369;44.046;23.014;2023-04-06T14:00:10;100690.16;;;14.21;31.04
42725;BME280;28369;44.046;23.014;2023-04-06T14:02:38;100715.59;;;14.58;30.47
42725;BME280;28369;44.046;23.014;2023-04-06T14:05:04;100669.00;;;14.21;30.87
42725;BME280;28369;44.046;23.014;2023-04-06T14:07:29;100654.53;;;14.51;30.49
42725;BME280;28369;44.046;23.014;2023-04-06T14:09:55;100709.13;;;14.34;30.62
42725;BME280;28369;44.046;23.014;2023-04-06T14:16:01;100674.38;;;14.11;31.57
42725;BME280;28369;44.046;23.014;2023-04-06T14:18:26;100677.25;;;14.18;31.66
42725;BME280;28369;44.046;23.014;2023-04-06T14:20:59;100732.44;;;14.57;31.82
42725;BME280;28369;44.046;23.014;2023-04-06T14:23:27;100556.66;;;13.45;31.25
42725;BME280;28369;44.046;23.014;2023-04-06T14:26:12;100726.41;;;14.47;30.46
42725;BME280;28369;44.046;23.014;2023-04-06T14:28:39;100523.34;;;13.34;31.39
42725;BME280;28369;44.046;23.014;2023-04-06T14:31:12;100705.97;;;14.49;30.42
42725;BME280;28369;44.046;23.014;2023-04-06T14:33:38;100664.53;;;14.40;30.75
42725;BME280;28369;44.046;23.014;2023-04-06T14:36:04;100498.16;;;13.22;30.34
42725;BME280;28369;44.046;23.014;2023-04-06T14:38:31;100658.50;;;14.11;30.30
42725;BME280;28369;44.046;23.014;2023-04-06T14:40:57;100705.03;;;14.40;29.55
42725;BME280;28369;44.046;23.014;2023-04-06T14:43:22;100672.34;;;14.23;30.92
42725;BME280;28369;44.046;23.014;2023-04-06T14:45:48;100515.63;;;13.51;30.82
42725;BME280;28369;44.046;23.014;2023-04-06T14:48:13;100671.34;;;14.42;30.25
42725;BME280;28369;44.046;23.014;2023-04-06T14:50:41;100739.56;;;14.21;30.25
42725;BME280;28369;44.046;23.014;2023-04-06T14:53:06;100687.06;;;14.26;30.92
42725;BME280;28369;44.046;23.014;2023-04-06T14:55:32;100724.69;;;14.20;30.90
42725;BME280;28369;44.046;23.014;2023-04-06T14:57:58;100749.38;;;14.28;31.28
42725;BME280;28369;44.046;23.014;2023-04-06T15:00:23;100578.75;;;13.16;32.65
42725;BME280;28369;44.046;23.014;2023-04-06T15:02:49;100685.94;;;13.92;33.45
42725;BME280;28369;44.046;23.014;2023-04-06T15:05:14;100725.22;;;14.41;32.65
42725;BME280;28369;44.046;23.014;2023-04-06T15:07:40;100703.44;;;13.93;32.51
42725;BME280;28369;44.046;23.014;2023-04-06T15:10:07;100753.00;;;13.81;32.22
42725;BME280;28369;44.046;23.014;2023-04-06T15:12:32;100727.81;;;13.87;32.62
42725;BME280;28369;44.046;23.014;2023-04-06T15:18:24;100754.84;;;13.53;33.21
42725;BME280;28369;44.046;23.014;2023-04-06T15:20:49;100562.19;;;12.58;33.50
42725;BME280;28369;44.046;23.014;2023-04-06T15:23:16;100720.84;;;13.30;33.71
42725;BME280;28369;44.046;23.014;2023-04-06T15:25:41;100657.00;;;13.07;34.56
42725;BME280;28369;44.046;23.014;2023-04-06T15:28:07;100745.06;;;13.16;33.69
42725;BME280;28369;44.046;23.014;2023-04-06T15:30:32;100669.31;;;12.79;33.81
42725;BME280;28369;44.046;23.014;2023-04-06T15:32:59;100746.53;;;13.38;32.98
42725;BME280;28369;44.046;23.014;2023-04-06T15:39:06;100735.94;;;13.01;33.59
42725;BME280;28369;44.046;23.014;2023-04-06T15:44:55;100662.59;;;12.27;33.51
42725;BME280;28369;44.046;23.014;2023-04-06T15:50:47;100643.13;;;12.19;34.55
42725;BME280;28369;44.046;23.014;2023-04-06T15:53:12;100599.72;;;11.84;34.58
42725;BME280;28369;44.046;23.014;2023-04-06T15:55:38;100749.84;;;12.64;33.76
42725;BME280;28369;44.046;23.014;2023-04-06T15:58:04;100755.81;;;12.66;34.05
42725;BME280;28369;44.046;23.014;2023-04-06T16:00:31;100715.84;;;12.41;33.77
42725;BME280;28369;44.046;23.014;2023-04-06T16:06:18;100782.47;;;12.62;33.53
42725;BME280;28369;44.046;23.014;2023-04-06T16:08:43;100725.81;;;12.08;34.05
42725;BME280;28369;44.046;23.014;2023-04-06T16:11:09;100746.72;;;12.00;34.15
42725;BME280;28369;44.046;23.014;2023-04-06T16:13:35;100795.78;;;12.51;34.28
42725;BME280;28369;44.046;23.014;2023-04-06T16:19:22;100660.47;;;11.32;33.99
42725;BME280;28369;44.046;23.014;2023-04-06T16:25:15;100824.09;;;12.49;34.30
42725;BME280;28369;44.046;23.014;2023-04-06T16:27:41;100814.09;;;12.33;34.70
42725;BME280;28369;44.046;23.014;2023-04-06T16:30:08;100834.94;;;12.46;34.37
42725;BME280;28369;44.046;23.014;2023-04-06T16:32:33;100815.97;;;12.02;35.32
42725;BME280;28369;44.046;23.014;2023-04-06T16:34:59;100716.53;;;11.63;35.17
42725;BME280;28369;44.046;23.014;2023-04-06T16:37:25;100666.78;;;11.19;34.88
42725;BME280;28369;44.046;23.014;2023-04-06T16:39:51;100566.22;;;10.33;35.48
42725;BME280;28369;44.046;23.014;2023-04-06T16:42:17;100732.56;;;11.19;35.23
42725;BME280;28369;44.046;23.014;2023-04-06T16:44:45;100819.25;;;11.73;35.36
42725;BME280;28369;44.046;23.014;2023-04-06T16:47:13;100805.88;;;11.55;35.39
42725;BME280;28369;44.046;23.014;2023-04-06T16:49:42;100593.00;;;10.27;35.04
42725;BME280;28369;44.046;23.014;2023-04-06T16:52:08;100585.91;;;10.17;35.01
42725;BME280;28369;44.046;23.014;2023-04-06T16:54:34;100838.13;;;11.47;35.15
42725;BME280;28369;44.046;23.014;2023-04-06T16:57:00;100639.28;;;10.50;35.14
42725;BME280;28369;44.046;23.014;2023-04-06T16:59:27;100731.69;;;10.88;35.77
42725;BME280;28369;44.046;23.014;2023-04-06T17:01:52;100856.59;;;11.78;35.60
42725;BME280;28369;44.046;23.014;2023-04-06T17:04:18;100830.69;;;11.52;35.69
42725;BME280;28369;44.046;23.014;2023-04-06T17:06:43;100819.31;;;11.31;36.14
42725;BME280;28369;44.046;23.014;2023-04-06T17:09:09;100840.31;;;11.42;36.64
42725;BME280;28369;44.046;23.014;2023-04-06T17:11:34;100792.56;;;11.04;36.27
42725;BME280;28369;44.046;23.014;2023-04-06T17:14:00;100855.91;;;11.34;36.68
42725;BME280;28369;44.046;23.014;2023-04-06T17:16:26;100829.50;;;11.03;36.72
42725;BME280;28369;44.046;23.014;2023-04-06T17:18:51;100743.56;;;10.50;36.72
42725;BME280;28369;44.046;23.014;2023-04-06T17:21:17;100877.63;;;11.26;37.00
42725;BME280;28369;44.046;23.014;2023-04-06T17:23:44;100726.50;;;10.33;37.29
42725;BME280;28369;44.046;23.014;2023-04-06T17:26:10;100878.88;;;11.11;37.33
42725;BME280;28369;44.046;23.014;2023-04-06T17:28:36;100858.22;;;11.27;37.56
42725;BME280;28369;44.046;23.014;2023-04-06T17:31:06;100874.41;;;11.22;37.40
42725;BME280;28369;44.046;23.014;2023-04-06T17:33:33;100808.78;;;10.67;37.33
42725;BME280;28369;44.046;23.014;2023-04-06T17:35:59;100847.81;;;11.04;37.64
42725;BME280;28369;44.046;23.014;2023-04-06T17:38:25;100879.97;;;11.08;37.97
42725;BME280;28369;44.046;23.014;2023-04-06T17:40:51;100805.03;;;10.70;37.83
42725;BME280;28369;44.046;23.014;2023-04-06T17:43:16;100762.00;;;10.27;38.27
42725;BME280;28369;44.046;23.014;2023-04-06T17:45:42;100867.75;;;11.07;38.09
42725;BME280;28369;44.046;23.014;2023-04-06T17:48:08;100850.16;;;10.86;38.13
42725;BME280;28369;44.046;23.014;2023-04-06T17:50:36;100862.47;;;10.86;38.43
42725;BME280;28369;44.046;23.014;2023-04-06T17:53:03;100826.34;;;10.55;38.62
42725;BME280;28369;44.046;23.014;2023-04-06T17:58:54;100851.34;;;10.38;39.48
42725;BME280;28369;44.046;23.014;2023-04-06T18:04:28;100848.69;;;10.61;39.63
42725;BME280;28369;44.046;23.014;2023-04-06T18:10:20;100725.22;;;9.83;40.08
42725;BME280;28369;44.046;23.014;2023-04-06T18:16:15;100892.81;;;10.58;41.08
42725;BME280;28369;44.046;23.014;2023-04-06T18:18:41;100877.53;;;10.40;41.54
42725;BME280;28369;44.046;23.014;2023-04-06T18:21:07;100870.81;;;10.47;41.70
42725;BME280;28369;44.046;23.014;2023-04-06T18:23:36;100868.22;;;10.36;41.97
42725;BME280;28369;44.046;23.014;2023-04-06T18:29:27;100925.41;;;10.66;41.73
42725;BME280;28369;44.046;23.014;2023-04-06T18:31:52;100928.31;;;10.41;41.69
42725;BME280;28369;44.046;23.014;2023-04-06T18:34:20;100893.06;;;10.32;41.82
42725;BME280;28369;44.046;23.014;2023-04-06T18:36:51;100709.03;;;9.10;41.97
42725;BME280;28369;44.046;23.014;2023-04-06T18:42:39;100866.28;;;10.15;41.65
42725;BME280;28369;44.046;23.014;2023-04-06T18:48:33;100891.97;;;10.12;41.91
42725;BME280;28369;44.046;23.014;2023-04-06T18:50:58;100880.38;;;10.14;41.69
42725;BME280;28369;44.046;23.014;2023-04-06T18:53:27;100887.06;;;10.18;41.66
42725;BME280;28369;44.046;23.014;2023-04-06T18:55:54;100876.66;;;10.28;41.75
42725;BME280;28369;44.046;23.014;2023-04-06T18:58:20;100707.13;;;9.35;41.50
42725;BME280;28369;44.046;23.014;2023-04-06T19:00:46;100921.50;;;10.49;41.85
42725;BME280;28369;44.046;23.014;2023-04-06T19:03:13;100957.34;;;10.50;41.98
42725;BME280;28369;44.046;23.014;2023-04-06T19:05:40;100775.09;;;9.27;42.43
42725;BME280;28369;44.046;23.014;2023-04-06T19:08:06;100953.16;;;10.59;41.97
42725;BME280;28369;44.046;23.014;2023-04-06T19:10:36;100924.81;;;10.40;42.14
42725;BME280;28369;44.046;23.014;2023-04-06T19:16:25;100867.97;;;10.05;42.50
42725;BME280;28369;44.046;23.014;2023-04-06T19:22:13;100898.75;;;10.14;42.62
42725;BME280;28369;44.046;23.014;2023-04-06T19:24:39;100939.75;;;10.28;42.41
42725;BME280;28369;44.046;23.014;2023-04-06T19:27:07;100920.41;;;10.29;42.40
42725;BME280;28369;44.046;23.014;2023-04-06T19:29:37;100924.84;;;10.17;42.86
42725;BME280;28369;44.046;23.014;2023-04-06T19:35:26;100914.78;;;10.11;42.97
42725;BME280;28369;44.046;23.014;2023-04-06T19:41:23;100934.88;;;10.46;42.67
42725;BME280;28369;44.046;23.014;2023-04-06T19:47:16;100917.44;;;10.34;42.56
42725;BME280;28369;44.046;23.014;2023-04-06T19:53:05;100929.09;;;9.96;43.17
42725;BME280;28369;44.046;23.014;2023-04-06T19:58:53;100923.59;;;10.21;42.40
42725;BME280;28369;44.046;23.014;2023-04-06T20:01:19;100666.00;;;8.55;42.56
42725;BME280;28369;44.046;23.014;2023-04-06T20:03:45;100941.16;;;10.10;42.57
42725;BME280;28369;44.046;23.014;2023-04-06T20:06:11;100711.78;;;8.62;42.66
42725;BME280;28369;44.046;23.014;2023-04-06T20:08:36;100877.28;;;9.86;42.53
42725;BME280;28369;44.046;23.014;2023-04-06T20:11:05;100924.47;;;10.11;42.67
42725;BME280;28369;44.046;23.014;2023-04-06T20:13:34;100954.91;;;10.02;43.13
42725;BME280;28369;44.046;23.014;2023-04-06T20:16:05;100647.53;;;8.21;43.41
42725;BME280;28369;44.046;23.014;2023-04-06T20:29:02;100907.28;;;9.48;44.62
42725;BME280;28369;44.046;23.014;2023-04-06T20:34:55;100710.91;;;8.37;45.03
42725;BME280;28369;44.046;23.014;2023-04-06T20:40:54;100948.72;;;9.56;45.72
42725;BME280;28369;44.046;23.014;2023-04-06T20:43:24;100928.03;;;9.40;46.44
42725;BME280;28369;44.046;23.014;2023-04-06T20:45:53;100731.09;;;8.00;46.60
42725;BME280;28369;44.046;23.014;2023-04-06T20:52:10;100947.72;;;9.46;46.22
42725;BME280;28369;44.046;23.014;2023-04-06T20:54:37;100927.00;;;9.30;45.80
42725;BME280;28369;44.046;23.014;2023-04-06T20:57:02;100660.91;;;7.81;45.28
42725;BME280;28369;44.046;23.014;2023-04-06T20:59:28;100916.31;;;9.44;45.50
42725;BME280;28369;44.046;23.014;2023-04-06T21:01:53;100718.00;;;8.24;45.23
42725;BME280;28369;44.046;23.014;2023-04-06T21:04:19;100923.41;;;9.55;45.12
42725;BME280;28369;44.046;23.014;2023-04-06T21:06:47;100886.41;;;9.47;45.18
42725;BME280;28369;44.046;23.014;2023-04-06T21:09:13;100884.41;;;9.62;44.70
42725;BME280;28369;44.046;23.014;2023-04-06T21:11:39;100917.88;;;9.94;44.58
42725;BME280;28369;44.046;23.014;2023-04-06T21:14:09;100891.56;;;9.60;45.07
42725;BME280;28369;44.046;23.014;2023-04-06T21:16:35;100874.38;;;9.56;45.03
42725;BME280;28369;44.046;23.014;2023-04-06T21:19:01;100902.56;;;9.65;45.37
42725;BME280;28369;44.046;23.014;2023-04-06T21:24:49;100814.56;;;8.90;45.25
42725;BME280;28369;44.046;23.014;2023-04-06T21:27:15;100692.56;;;8.37;45.15
42725;BME280;28369;44.046;23.014;2023-04-06T21:29:40;100942.94;;;9.86;44.94
42725;BME280;28369;44.046;23.014;2023-04-06T21:32:12;100855.16;;;9.44;45.03
42725;BME280;28369;44.046;23.014;2023-04-06T21:34:40;100782.03;;;8.92;45.06
42725;BME280;28369;44.046;23.014;2023-04-06T21:37:06;100723.53;;;8.56;45.14
42725;BME280;28369;44.046;23.014;2023-04-06T21:39:43;100928.59;;;9.79;45.32
42725;BME280;28369;44.046;23.014;2023-04-06T21:42:09;100774.50;;;8.76;45.37
42725;BME280;28369;44.046;23.014;2023-04-06T21:44:34;100850.13;;;9.41;45.25
42725;BME280;28369;44.046;23.014;2023-04-06T21:47:00;100914.03;;;9.86;44.79
42725;BME280;28369;44.046;23.014;2023-04-06T21:49:42;100711.44;;;8.42;45.67
42725;BME280;28369;44.046;23.014;2023-04-06T21:55:32;100648.13;;;8.00;45.88
42725;BME280;28369;44.046;23.014;2023-04-06T22:01:25;100861.75;;;9.61;45.41
42725;BME280;28369;44.046;23.014;2023-04-06T22:07:26;100688.97;;;8.03;45.92
42725;BME280;28369;44.046;23.014;2023-04-06T22:13:13;100934.09;;;9.88;44.98
42725;BME280;28369;44.046;23.014;2023-04-06T22:19:06;100869.03;;;9.68;44.87
42725;BME280;28369;44.046;23.014;2023-04-06T22:24:53;100906.75;;;10.01;44.44
42725;BME280;28369;44.046;23.014;2023-04-06T22:31:08;100939.06;;;10.37;44.29
42725;BME280;28369;44.046;23.014;2023-04-06T22:33:33;100876.81;;;10.04;44.36
42725;BME280;28369;44.046;23.014;2023-04-06T22:35:59;100841.13;;;9.79;44.30
42725;BME280;28369;44.046;23.014;2023-04-06T22:45:31;100928.53;;;10.26;44.79
42725;BME280;28369;44.046;23.014;2023-04-06T22:54:45;100555.81;;;8.09;44.43
42725;BME280;28369;44.046;23.014;2023-04-06T22:57:10;100911.69;;;9.95;45.23
42725;BME280;28369;44.046;23.014;2023-04-06T23:03:13;100904.81;;;9.23;47.37
42725;BME280;28369;44.046;23.014;2023-04-06T23:09:26;100932.50;;;9.62;46.70
42725;BME280;28369;44.046;23.014;2023-04-06T23:15:31;100922.88;;;9.03;47.52
42725;BME280;28369;44.046;23.014;2023-04-06T23:25:11;100928.06;;;8.92;48.52
42725;BME280;28369;44.046;23.014;2023-04-06T23:27:49;100889.25;;;8.60;48.29
42725;BME280;28369;44.046;23.014;2023-04-06T23:34:02;100925.50;;;9.03;47.57
42725;BME280;28369;44.046;23.014;2023-04-06T23:40:25;100915.22;;;9.71;46.33
42725;BME280;28369;44.046;23.014;2023-04-06T23:46:52;100908.75;;;9.64;46.50
42725;BME280;28369;44.046;23.014;2023-04-06T23:53:03;100914.13;;;9.62;46.32
42725;BME280;28369;44.046;23.014;2023-04-06T23:58:56;100882.88;;;9.24;46.34
